createdAt,value
2022-12-26T00:02:00.496Z,3.69
2022-12-26T00:04:51.274Z,3.71
2022-12-26T00:07:15.755Z,3.70
2022-12-26T00:09:43.402Z,3.69
2022-12-26T00:12:11.013Z,3.68
2022-12-26T00:14:39.023Z,3.68
2022-12-26T00:17:06.711Z,3.69
2022-12-26T00:19:34.394Z,3.68
2022-12-26T00:22:02.132Z,3.70
2022-12-26T00:24:29.888Z,3.70
2022-12-26T00:26:57.496Z,3.69
2022-12-26T00:29:25.175Z,3.71
2022-12-26T00:31:53.456Z,3.71
2022-12-26T00:34:21.395Z,3.72
2022-12-26T00:36:50.167Z,3.72
2022-12-26T00:39:17.828Z,3.74
2022-12-26T00:41:45.567Z,3.74
2022-12-26T00:44:13.238Z,3.77
2022-12-26T00:46:40.962Z,3.77
2022-12-26T00:49:08.739Z,3.78
2022-12-26T00:51:36.322Z,3.78
2022-12-26T00:54:04.050Z,3.80
2022-12-26T00:56:31.714Z,3.82
2022-12-26T00:58:59.410Z,3.82
2022-12-26T01:01:30.911Z,3.84
2022-12-26T01:03:58.753Z,3.84
2022-12-26T01:06:26.348Z,3.84
2022-12-26T01:08:54.426Z,3.87
2022-12-26T01:11:40.826Z,3.86
2022-12-26T01:14:14.918Z,3.86
2022-12-26T01:16:44.218Z,3.87
2022-12-26T01:19:12.996Z,3.86
2022-12-26T01:21:43.095Z,3.87
2022-12-26T01:24:11.100Z,3.88
2022-12-26T01:26:38.888Z,3.89
2022-12-26T01:29:06.546Z,3.89
2022-12-26T01:31:34.241Z,3.89
2022-12-26T01:34:01.920Z,3.88
2022-12-26T01:36:29.623Z,3.89
2022-12-26T01:38:57.219Z,3.88
2022-12-26T01:41:24.859Z,3.90
2022-12-26T01:44:05.146Z,3.91
2022-12-26T01:46:38.797Z,3.91
2022-12-26T01:49:17.431Z,3.89
2022-12-26T01:51:50.936Z,3.90
2022-12-26T01:54:39.645Z,3.89
2022-12-26T01:57:13.252Z,3.89
2022-12-26T01:59:42.164Z,3.89
2022-12-26T02:02:11.768Z,3.91
2022-12-26T02:05:02.697Z,3.91
2022-12-26T02:07:33.613Z,3.92
2022-12-26T02:10:01.555Z,3.92
2022-12-26T02:12:38.875Z,3.91
2022-12-26T02:15:13.427Z,3.93
2022-12-26T02:17:41.948Z,3.92
2022-12-26T02:20:33.922Z,3.93
2022-12-26T02:23:20.542Z,3.92
2022-12-26T02:26:11.144Z,3.92
2022-12-26T02:29:02.577Z,3.91
2022-12-26T02:31:56.327Z,3.92
2022-12-26T02:34:46.509Z,3.93
2022-12-26T02:37:29.783Z,3.94
2022-12-26T02:40:27.092Z,3.95
2022-12-26T02:43:17.723Z,3.94
2022-12-26T02:46:23.923Z,3.97
2022-12-26T02:49:14.651Z,3.97
2022-12-26T02:52:37.506Z,3.96
2022-12-26T02:55:28.787Z,3.95
2022-12-26T02:58:31.286Z,3.95
2022-12-26T03:01:22.883Z,3.93
2022-12-26T03:04:11.970Z,3.95
2022-12-26T03:07:03.980Z,3.93
2022-12-26T03:09:53.205Z,3.97
2022-12-26T03:12:39.500Z,3.94
2022-12-26T03:15:10.729Z,3.94
2022-12-26T03:17:38.277Z,3.92
2022-12-26T03:20:15.741Z,3.90
2022-12-26T03:22:54.884Z,3.90
2022-12-26T03:26:20.975Z,3.88
2022-12-26T03:28:50.068Z,3.89
2022-12-26T03:31:17.783Z,3.88
2022-12-26T03:34:05.903Z,3.89
2022-12-26T03:36:52.465Z,3.90
2022-12-26T03:39:59.704Z,3.89
2022-12-26T03:42:53.082Z,3.88
2022-12-26T03:45:46.797Z,3.88
2022-12-26T03:48:56.480Z,3.88
2022-12-26T03:52:13.025Z,3.85
2022-12-26T03:55:02.611Z,3.84
2022-12-26T03:58:02.843Z,3.84
2022-12-26T04:00:50.251Z,3.85
2022-12-26T04:03:39.036Z,3.85
2022-12-26T04:06:34.971Z,3.82
2022-12-26T04:09:27.462Z,3.86
2022-12-26T04:12:16.734Z,3.86
2022-12-26T04:15:15.243Z,3.85
2022-12-26T04:18:18.211Z,3.85
2022-12-26T04:21:00.980Z,3.86
2022-12-26T04:23:56.087Z,3.84
2022-12-26T04:26:51.289Z,3.83
2022-12-26T04:29:37.680Z,3.83
2022-12-26T04:32:32.883Z,3.81
2022-12-26T04:35:26.815Z,3.82
2022-12-26T04:38:16.573Z,3.83
2022-12-26T04:41:08.219Z,3.82
2022-12-26T04:43:55.121Z,3.83
2022-12-26T04:46:25.946Z,3.85
2022-12-26T04:49:14.115Z,3.82
2022-12-26T04:51:42.011Z,3.81
2022-12-26T04:54:09.789Z,3.82
2022-12-26T04:56:38.341Z,3.81
2022-12-26T04:59:06.017Z,3.83
2022-12-26T05:01:52.538Z,3.84
2022-12-26T05:04:38.863Z,3.85
2022-12-26T05:07:49.502Z,3.86
2022-12-26T05:10:23.881Z,3.90
2022-12-26T05:12:52.529Z,3.91
2022-12-26T05:15:21.154Z,3.93
2022-12-26T05:18:07.495Z,3.94
2022-12-26T05:20:53.689Z,3.96
2022-12-26T05:23:43.535Z,3.96
2022-12-26T05:26:38.845Z,3.98
2022-12-26T05:29:06.952Z,3.98
2022-12-26T05:31:36.449Z,4.00
2022-12-26T05:34:06.464Z,4.01
2022-12-26T05:36:56.588Z,4.01
2022-12-26T05:39:25.159Z,4.05
2022-12-26T05:41:52.913Z,4.05
2022-12-26T05:44:20.539Z,4.06
2022-12-26T05:46:48.632Z,4.07
2022-12-26T05:49:16.431Z,4.08
2022-12-26T05:51:44.076Z,4.09
2022-12-26T05:54:11.672Z,4.10
2022-12-26T05:56:42.963Z,4.10
2022-12-26T05:59:13.509Z,4.08
2022-12-26T06:01:41.175Z,4.08
2022-12-26T06:04:08.990Z,4.05
2022-12-26T06:06:36.579Z,4.07
2022-12-26T06:09:04.177Z,4.09
2022-12-26T06:11:31.835Z,4.09
2022-12-26T06:14:00.259Z,4.06
2022-12-26T06:16:28.297Z,4.04
2022-12-26T06:18:56.189Z,4.04
2022-12-26T06:21:24.215Z,4.05
2022-12-26T06:23:52.024Z,4.05
2022-12-26T06:26:19.658Z,4.06
2022-12-26T06:28:47.573Z,4.06
2022-12-26T06:31:22.192Z,4.07
2022-12-26T06:33:52.390Z,4.08
2022-12-26T06:36:23.707Z,4.07
2022-12-26T06:38:52.390Z,4.08
2022-12-26T06:41:22.644Z,4.08
2022-12-26T06:43:50.941Z,4.09
2022-12-26T06:46:24.300Z,4.09
2022-12-26T06:48:52.662Z,4.08
2022-12-26T06:51:24.318Z,4.08
2022-12-26T06:53:53.099Z,4.08
2022-12-26T06:56:26.326Z,4.09
2022-12-26T06:58:55.296Z,4.10
2022-12-26T07:01:24.124Z,4.12
2022-12-26T07:03:54.152Z,4.13
2022-12-26T07:06:25.659Z,4.12
2022-12-26T07:08:56.214Z,4.11
2022-12-26T07:11:26.465Z,4.12
2022-12-26T07:13:55.758Z,4.13
2022-12-26T07:16:23.884Z,4.15
2022-12-26T07:18:56.425Z,4.15
2022-12-26T07:21:25.857Z,4.17
2022-12-26T07:23:55.113Z,4.19
2022-12-26T07:26:24.205Z,4.22
2022-12-26T07:28:56.620Z,4.23
2022-12-26T07:31:25.564Z,4.24
2022-12-26T07:33:54.880Z,4.26
2022-12-26T07:36:24.944Z,4.28
2022-12-26T07:38:52.693Z,4.29
2022-12-26T07:41:39.122Z,4.31
2022-12-26T07:44:07.260Z,4.34
2022-12-26T07:46:35.039Z,4.38
2022-12-26T07:49:03.379Z,4.38
2022-12-26T07:51:31.116Z,4.40
2022-12-26T07:53:58.836Z,4.41
2022-12-26T07:56:26.599Z,4.44
2022-12-26T07:58:54.296Z,4.45
2022-12-26T08:01:22.015Z,4.46
2022-12-26T08:03:49.988Z,4.46
2022-12-26T08:06:19.044Z,4.48
2022-12-26T08:08:51.119Z,4.51
2022-12-26T08:11:22.583Z,4.52
2022-12-26T08:13:51.782Z,4.54
2022-12-26T08:16:20.308Z,4.54
2022-12-26T08:18:48.024Z,4.57
2022-12-26T08:21:16.235Z,4.59
2022-12-26T08:23:43.859Z,4.62
2022-12-26T08:26:13.029Z,4.64
2022-12-26T08:28:42.835Z,4.69
2022-12-26T08:31:12.670Z,4.73
2022-12-26T08:33:40.450Z,4.76
2022-12-26T08:36:10.656Z,4.83
2022-12-26T08:38:40.252Z,4.84
2022-12-26T08:41:07.901Z,4.89
2022-12-26T08:46:24.198Z,5.00
2022-12-26T08:48:52.019Z,5.06
2022-12-26T08:51:24.588Z,5.16
2022-12-26T08:53:55.028Z,5.24
2022-12-26T08:56:25.351Z,5.32
2022-12-26T08:58:53.063Z,5.40
2022-12-26T09:01:25.886Z,5.48
2022-12-26T09:03:56.623Z,5.55
2022-12-26T09:06:24.757Z,5.62
2022-12-26T09:08:53.003Z,5.69
2022-12-26T09:11:28.690Z,5.78
2022-12-26T09:13:57.468Z,5.87
2022-12-26T09:16:32.736Z,5.95
2022-12-26T09:19:05.023Z,6.04
2022-12-26T09:21:33.269Z,6.12
2022-12-26T09:24:03.576Z,6.19
2022-12-26T09:26:32.084Z,6.27
2022-12-26T09:29:00.395Z,6.33
2022-12-26T09:31:30.285Z,6.39
2022-12-26T09:33:58.313Z,6.43
2022-12-26T09:36:29.667Z,6.46
2022-12-26T09:38:58.270Z,6.51
2022-12-26T09:41:51.869Z,6.55
2022-12-26T09:44:31.935Z,6.59
2022-12-26T09:47:18.007Z,6.63
2022-12-26T09:49:51.733Z,6.66
2022-12-26T09:52:23.328Z,6.71
2022-12-26T09:54:54.543Z,6.76
2022-12-26T09:57:34.140Z,6.81
2022-12-26T10:00:06.141Z,6.87
2022-12-26T10:02:40.385Z,6.93
2022-12-26T10:05:12.924Z,7.00
2022-12-26T10:07:50.626Z,7.04
2022-12-26T10:10:35.733Z,7.09
2022-12-26T10:13:33.916Z,7.15
2022-12-26T10:16:21.928Z,7.20
2022-12-26T10:18:58.269Z,7.26
2022-12-26T10:21:37.114Z,7.30
2022-12-26T10:24:14.425Z,7.35
2022-12-26T10:26:49.758Z,7.42
2022-12-26T10:29:24.193Z,7.51
2022-12-26T10:32:06.611Z,7.60
2022-12-26T10:34:42.213Z,7.71
2022-12-26T10:37:35.252Z,7.83
2022-12-26T10:40:20.165Z,7.97
2022-12-26T10:42:57.162Z,8.14
2022-12-26T10:45:36.725Z,8.29
2022-12-26T10:48:04.678Z,8.47
2022-12-26T10:50:37.733Z,8.62
2022-12-26T10:53:07.649Z,8.75
2022-12-26T10:55:35.774Z,8.85
2022-12-26T10:58:12.008Z,8.94
2022-12-26T11:00:39.621Z,9.06
2022-12-26T11:03:17.992Z,9.17
2022-12-26T11:06:07.518Z,9.25
2022-12-26T11:08:47.391Z,9.36
2022-12-26T11:11:15.050Z,9.46
2022-12-26T11:14:02.315Z,9.57
2022-12-26T11:16:35.472Z,9.67
2022-12-26T11:19:03.902Z,9.80
2022-12-26T11:21:32.967Z,9.96
2022-12-26T11:24:09.563Z,10.05
2022-12-26T11:26:38.339Z,10.08
2022-12-26T11:29:14.884Z,10.10
2022-12-26T11:31:59.088Z,10.12
2022-12-26T11:34:47.905Z,10.12
2022-12-26T11:37:29.074Z,10.11
2022-12-26T11:39:57.866Z,10.14
2022-12-26T11:42:26.927Z,10.22
2022-12-26T11:44:57.754Z,10.27
2022-12-26T11:47:29.372Z,10.32
2022-12-26T11:50:06.342Z,10.36
2022-12-26T11:52:56.829Z,10.37
2022-12-26T11:55:33.453Z,10.38
2022-12-26T11:58:10.068Z,10.38
2022-12-26T12:01:02.408Z,10.41
2022-12-26T12:03:38.122Z,10.42
2022-12-26T12:06:47.229Z,10.41
2022-12-26T12:09:23.926Z,10.41
2022-12-26T12:12:13.349Z,10.42
2022-12-26T12:15:22.847Z,10.47
2022-12-26T12:18:24.542Z,10.49
2022-12-26T12:21:14.959Z,10.51
2022-12-26T12:24:03.183Z,10.52
2022-12-26T12:26:50.989Z,10.49
2022-12-26T12:29:45.647Z,10.42
2022-12-26T12:32:34.220Z,10.39
2022-12-26T12:35:33.396Z,10.42
2022-12-26T12:38:38.225Z,10.50
2022-12-26T12:41:08.859Z,10.58
2022-12-26T12:43:58.464Z,10.62
2022-12-26T12:46:32.265Z,10.64
2022-12-26T12:49:18.494Z,10.66
2022-12-26T12:51:51.045Z,10.65
2022-12-26T12:54:39.330Z,10.64
2022-12-26T12:57:21.247Z,10.62
2022-12-26T12:59:57.655Z,10.62
2022-12-26T13:02:31.297Z,10.61
2022-12-26T13:05:20.934Z,10.61
2022-12-26T13:07:57.985Z,10.60
2022-12-26T13:10:38.271Z,10.59
2022-12-26T13:13:20.159Z,10.58
2022-12-26T13:15:51.518Z,10.57
2022-12-26T13:18:23.759Z,10.55
2022-12-26T13:20:59.690Z,10.52
2022-12-26T13:23:54.903Z,10.53
2022-12-26T13:26:27.606Z,10.56
2022-12-26T13:29:04.050Z,10.60
2022-12-26T13:31:36.317Z,10.61
2022-12-26T13:34:08.180Z,10.63
2022-12-26T13:36:44.029Z,10.62
2022-12-26T13:39:27.149Z,10.61
2022-12-26T13:42:36.573Z,10.59
2022-12-26T13:45:39.180Z,10.57
2022-12-26T13:48:15.943Z,10.53
2022-12-26T13:50:55.287Z,10.52
2022-12-26T13:53:26.855Z,10.48
2022-12-26T13:55:55.858Z,10.48
2022-12-26T13:58:45.459Z,10.46
2022-12-26T14:01:36.120Z,10.41
2022-12-26T14:04:22.821Z,10.37
2022-12-26T14:07:11.736Z,10.35
2022-12-26T14:09:51.351Z,10.30
2022-12-26T14:12:35.012Z,10.28
2022-12-26T14:15:29.667Z,10.22
2022-12-26T14:18:18.395Z,10.18
2022-12-26T14:21:01.207Z,10.15
2022-12-26T14:23:54.461Z,10.12
2022-12-26T14:26:40.078Z,10.12
2022-12-26T14:29:32.688Z,10.07
2022-12-26T14:32:06.306Z,10.04
2022-12-26T14:34:55.201Z,10.02
2022-12-26T14:37:44.604Z,9.99
2022-12-26T14:40:29.480Z,9.97
2022-12-26T14:43:12.692Z,9.96
2022-12-26T14:45:42.456Z,9.94
2022-12-26T14:48:15.909Z,9.96
2022-12-26T14:50:43.880Z,9.94
2022-12-26T14:53:29.597Z,9.93
2022-12-26T14:56:14.088Z,9.93
2022-12-26T14:58:51.737Z,9.93
2022-12-26T15:01:22.350Z,9.93
2022-12-26T15:04:17.916Z,9.93
2022-12-26T15:07:05.094Z,9.94
2022-12-26T15:09:53.928Z,9.96
2022-12-26T15:12:58.993Z,9.98
2022-12-26T15:15:35.203Z,10.01
2022-12-26T15:18:14.041Z,10.05
2022-12-26T15:20:53.139Z,10.08
2022-12-26T15:23:47.749Z,10.10
2022-12-26T15:26:34.812Z,10.12
2022-12-26T15:29:31.970Z,10.14
2022-12-26T15:32:16.836Z,10.16
2022-12-26T15:34:59.517Z,10.19
2022-12-26T15:37:57.580Z,10.22
2022-12-26T15:40:29.865Z,10.24
2022-12-26T15:43:19.174Z,10.28
2022-12-26T15:46:26.666Z,10.31
2022-12-26T15:49:13.928Z,10.34
2022-12-26T15:52:02.787Z,10.37
2022-12-26T15:55:08.563Z,10.37
2022-12-26T15:57:36.301Z,10.38
2022-12-26T16:00:13.186Z,10.39
2022-12-26T16:03:19.072Z,10.38
2022-12-26T16:05:56.180Z,10.38
2022-12-26T16:08:32.803Z,10.39
2022-12-26T16:11:24.507Z,10.40
2022-12-26T16:13:57.283Z,10.40
2022-12-26T16:16:26.355Z,10.40
2022-12-26T16:18:54.223Z,10.37
2022-12-26T16:21:46.316Z,10.37
2022-12-26T16:24:17.534Z,10.37
2022-12-26T16:26:47.042Z,10.34
2022-12-26T16:29:19.214Z,10.32
2022-12-26T16:31:47.292Z,10.31
2022-12-26T16:34:19.194Z,10.27
2022-12-26T16:36:51.018Z,10.24
2022-12-26T16:39:23.320Z,10.20
2022-12-26T16:42:27.687Z,10.20
2022-12-26T16:44:55.937Z,10.19
2022-12-26T16:47:24.749Z,10.16
2022-12-26T16:49:53.439Z,10.18
2022-12-26T16:52:30.105Z,10.18
2022-12-26T16:54:57.874Z,10.18
2022-12-26T16:57:26.139Z,10.17
2022-12-26T16:59:59.220Z,10.16
2022-12-26T17:02:33.725Z,10.18
2022-12-26T17:05:21.823Z,10.20
2022-12-26T17:07:50.699Z,10.19
2022-12-26T17:10:49.115Z,10.15
2022-12-26T17:13:26.139Z,10.11
2022-12-26T17:16:01.261Z,10.08
2022-12-26T17:18:45.856Z,10.02
2022-12-26T17:21:18.251Z,9.96
2022-12-26T17:23:58.562Z,9.89
2022-12-26T17:26:29.393Z,9.85
2022-12-26T17:28:57.206Z,9.81
2022-12-26T17:31:35.608Z,9.78
2022-12-26T17:34:26.570Z,9.76
2022-12-26T17:39:42.635Z,9.69
2022-12-26T17:42:12.797Z,9.64
2022-12-26T17:44:45.879Z,9.61
2022-12-26T17:47:28.631Z,9.59
2022-12-26T17:49:57.313Z,9.55
2022-12-26T17:52:29.203Z,9.54
2022-12-26T17:54:58.208Z,9.54
2022-12-26T17:57:28.239Z,9.52
2022-12-26T17:59:56.526Z,9.50
2022-12-26T18:02:24.855Z,9.50
2022-12-26T18:04:53.970Z,9.49
2022-12-26T18:07:30.834Z,9.47
2022-12-26T18:10:01.367Z,9.45
2022-12-26T18:12:29.264Z,9.44
2022-12-26T18:15:01.634Z,9.40
2022-12-26T18:17:32.772Z,9.39
2022-12-26T18:20:01.711Z,9.39
2022-12-26T18:22:29.450Z,9.38
2022-12-26T18:24:57.324Z,9.38
2022-12-26T18:27:31.081Z,9.36
2022-12-26T18:29:59.941Z,9.36
2022-12-26T18:32:30.327Z,9.37
2022-12-26T18:34:58.823Z,9.36
2022-12-26T18:37:28.991Z,9.35
2022-12-26T18:39:56.977Z,9.32
2022-12-26T18:42:26.385Z,9.30
2022-12-26T18:44:54.445Z,9.27
2022-12-26T18:47:23.002Z,9.25
2022-12-26T18:49:50.680Z,9.25
2022-12-26T18:52:18.452Z,9.25
2022-12-26T18:54:46.069Z,9.24
2022-12-26T18:57:20.135Z,9.22
2022-12-26T18:59:48.238Z,9.20
2022-12-26T19:02:18.751Z,9.18
2022-12-26T19:04:49.975Z,9.17
2022-12-26T19:07:22.533Z,9.19
2022-12-26T19:09:55.641Z,9.16
2022-12-26T19:12:23.870Z,9.16
2022-12-26T19:14:52.607Z,9.14
2022-12-26T19:17:20.286Z,9.13
2022-12-26T19:19:47.991Z,9.12
2022-12-26T19:22:15.748Z,9.11
2022-12-26T19:24:45.151Z,9.11
2022-12-26T19:27:12.868Z,9.11
2022-12-26T19:29:40.586Z,9.13
2022-12-26T19:32:08.474Z,9.12
2022-12-26T19:34:36.133Z,9.11
2022-12-26T19:37:03.818Z,9.13
2022-12-26T19:39:31.604Z,9.11
2022-12-26T19:41:59.362Z,9.12
2022-12-26T19:44:29.252Z,9.13
2022-12-26T19:47:12.334Z,9.13
2022-12-26T19:49:42.101Z,9.12
2022-12-26T19:52:11.298Z,9.14
2022-12-26T19:54:39.144Z,9.12
2022-12-26T19:57:07.025Z,9.13
2022-12-26T19:59:34.756Z,9.11
2022-12-26T20:02:03.188Z,9.14
2022-12-26T20:04:31.101Z,9.14
2022-12-26T20:07:00.467Z,9.17
2022-12-26T20:09:28.292Z,9.18
2022-12-26T20:11:56.859Z,9.17
2022-12-26T20:14:26.731Z,9.20
2022-12-26T20:17:06.210Z,9.19
2022-12-26T20:19:35.880Z,9.17
2022-12-26T20:22:05.383Z,9.18
2022-12-26T20:24:33.267Z,9.16
2022-12-26T20:27:01.275Z,9.15
2022-12-26T20:29:29.079Z,9.15
2022-12-26T20:31:58.075Z,9.13
2022-12-26T20:34:26.729Z,9.11
2022-12-26T20:36:54.461Z,9.14
2022-12-26T20:39:22.710Z,9.15
2022-12-26T20:41:50.504Z,9.13
2022-12-26T20:44:18.643Z,9.13
2022-12-26T20:46:46.740Z,9.11
2022-12-26T20:49:14.513Z,9.09
2022-12-26T20:51:44.060Z,9.07
2022-12-26T20:54:12.534Z,9.07
2022-12-26T20:56:40.940Z,9.05
2022-12-26T20:59:08.850Z,9.01
2022-12-26T21:01:37.994Z,8.99
2022-12-26T21:04:06.636Z,8.99
2022-12-26T21:06:37.200Z,8.97
2022-12-26T21:09:06.568Z,8.97
2022-12-26T21:11:38.049Z,8.99
2022-12-26T21:14:11.121Z,9.01
2022-12-26T21:16:44.852Z,9.03
2022-12-26T21:19:15.578Z,9.07
2022-12-26T21:21:46.714Z,9.11
2022-12-26T21:24:23.104Z,9.11
2022-12-26T21:26:51.848Z,9.14
2022-12-26T21:29:23.657Z,9.14
2022-12-26T21:31:51.659Z,9.17
2022-12-26T21:34:21.683Z,9.16
2022-12-26T21:37:09.144Z,9.16
2022-12-26T21:39:37.707Z,9.15
2022-12-26T21:42:07.084Z,9.11
2022-12-26T21:44:36.776Z,9.07
2022-12-26T21:47:08.002Z,9.03
2022-12-26T21:49:36.732Z,9.00
2022-12-26T21:52:06.069Z,9.00
2022-12-26T21:54:53.125Z,8.97
2022-12-26T21:57:21.568Z,8.92
2022-12-26T21:59:58.812Z,8.87
2022-12-26T22:02:54.418Z,8.84
2022-12-26T22:05:25.210Z,8.82
2022-12-26T22:08:00.205Z,8.77
2022-12-26T22:10:49.220Z,8.71
2022-12-26T22:13:17.685Z,8.67
2022-12-26T22:16:03.302Z,8.63
2022-12-26T22:18:41.186Z,8.56
2022-12-26T22:21:20.437Z,8.51
2022-12-26T22:23:52.069Z,8.47
2022-12-26T22:26:22.326Z,8.42
2022-12-26T22:28:50.461Z,8.39
2022-12-26T22:31:20.196Z,8.38
2022-12-26T22:33:53.468Z,8.35
2022-12-26T22:36:21.145Z,8.32
2022-12-26T22:38:48.787Z,8.30
2022-12-26T22:41:16.538Z,8.30
2022-12-26T22:43:44.632Z,8.30
2022-12-26T22:46:13.857Z,8.29
2022-12-26T22:48:42.020Z,8.27
2022-12-26T22:51:15.307Z,8.29
2022-12-26T22:53:42.936Z,8.24
2022-12-26T22:56:11.656Z,8.22
2022-12-26T22:58:39.560Z,8.20
2022-12-26T23:01:13.440Z,8.18
2022-12-26T23:03:41.489Z,8.16
2022-12-26T23:06:27.445Z,8.16
2022-12-26T23:08:59.222Z,8.16
2022-12-26T23:11:34.785Z,8.16
2022-12-26T23:14:05.912Z,8.19
2022-12-26T23:16:51.174Z,8.19
2022-12-26T23:19:52.754Z,8.21
2022-12-26T23:22:20.585Z,8.24
2022-12-26T23:24:48.220Z,8.24
2022-12-26T23:27:34.472Z,8.26
2022-12-26T23:30:20.258Z,8.26
2022-12-26T23:32:53.086Z,8.27
2022-12-26T23:35:21.675Z,8.25
2022-12-26T23:37:50.194Z,8.25
2022-12-26T23:40:19.656Z,8.25
2022-12-26T23:42:47.729Z,8.25
2022-12-26T23:45:16.442Z,8.25
2022-12-26T23:47:45.649Z,8.27
2022-12-26T23:50:15.170Z,8.29
2022-12-26T23:52:43.399Z,8.29
2022-12-26T23:55:11.951Z,8.31
2022-12-26T23:57:39.682Z,8.30
